createdAt,value
2022-08-17T00:00:42.746Z,100020.00
2022-08-17T00:03:03.029Z,100016.59
2022-08-17T00:05:30.454Z,100028.00
2022-08-17T00:07:59.395Z,100021.53
2022-08-17T00:10:25.911Z,100017.50
2022-08-17T00:12:53.550Z,100028.09
2022-08-17T00:15:21.130Z,100022.59
2022-08-17T00:17:48.532Z,100022.38
2022-08-17T00:20:15.050Z,100020.03
2022-08-17T00:22:41.657Z,100022.38
2022-08-17T00:25:08.173Z,100021.22
2022-08-17T00:27:34.689Z,100029.44
2022-08-17T00:30:01.212Z,100027.72
2022-08-17T00:33:15.124Z,100022.72
2022-08-17T00:35:15.168Z,100026.81
2022-08-17T00:37:41.663Z,100025.94
2022-08-17T00:40:08.188Z,100032.31
2022-08-17T00:42:34.701Z,100025.53
2022-08-17T00:45:01.201Z,100030.06
2022-08-17T00:47:28.722Z,100026.28
2022-08-17T00:49:56.167Z,100026.28
2022-08-17T00:52:23.577Z,100023.34
2022-08-17T00:54:51.019Z,100026.41
2022-08-17T00:57:17.512Z,100024.03
2022-08-17T00:59:44.997Z,100026.19
2022-08-17T01:02:11.483Z,100022.28
2022-08-17T01:04:37.961Z,100022.06
2022-08-17T01:07:04.449Z,100026.56
2022-08-17T01:09:31.889Z,100019.50
2022-08-17T01:11:59.311Z,100021.34
2022-08-17T01:14:25.788Z,100019.94
2022-08-17T01:16:52.297Z,100030.88
2022-08-17T01:19:18.790Z,100025.28
2022-08-17T01:21:45.299Z,100032.56
2022-08-17T01:24:11.828Z,100027.38
2022-08-17T01:26:39.268Z,100035.34
2022-08-17T01:29:05.768Z,100030.44
2022-08-17T01:31:33.209Z,100034.47
2022-08-17T01:34:00.651Z,100041.00
2022-08-17T01:36:28.465Z,100033.78
2022-08-17T01:38:54.950Z,100031.75
2022-08-17T01:41:21.461Z,100029.66
2022-08-17T01:43:47.961Z,100034.13
2022-08-17T01:46:15.412Z,100030.97
2022-08-17T01:48:41.921Z,100029.91
2022-08-17T01:51:08.456Z,100033.41
2022-08-17T01:53:35.031Z,100048.63
2022-08-17T01:56:02.473Z,100041.44
2022-08-17T01:58:28.967Z,100043.47
2022-08-17T02:01:00.519Z,100045.91
2022-08-17T02:03:28.617Z,100043.03
2022-08-17T02:05:55.129Z,100042.31
2022-08-17T02:08:37.229Z,100037.31
2022-08-17T02:11:06.144Z,100046.41
2022-08-17T02:13:37.964Z,100037.50
2022-08-17T02:16:05.407Z,100034.50
2022-08-17T02:18:32.822Z,100042.75
2022-08-17T02:20:59.336Z,100040.94
2022-08-17T02:23:25.845Z,100044.00
2022-08-17T02:25:53.271Z,100039.81
2022-08-17T02:28:20.698Z,100043.91
2022-08-17T02:30:59.954Z,100044.97
2022-08-17T02:33:42.167Z,100038.41
2022-08-17T02:36:10.130Z,100043.22
2022-08-17T02:38:37.669Z,100033.28
2022-08-17T02:41:05.133Z,100046.19
2022-08-17T02:43:32.569Z,100039.00
2022-08-17T02:45:59.067Z,100049.75
2022-08-17T02:48:30.778Z,100041.78
2022-08-17T02:50:58.244Z,100046.94
2022-08-17T02:53:24.765Z,100039.25
2022-08-17T02:55:53.237Z,100044.34
2022-08-17T02:58:34.714Z,100043.88
2022-08-17T03:01:03.056Z,100042.22
2022-08-17T03:03:29.542Z,100037.97
2022-08-17T03:05:56.981Z,100047.28
2022-08-17T03:08:23.567Z,100047.09
2022-08-17T03:10:50.072Z,100044.91
2022-08-17T03:13:17.491Z,100055.81
2022-08-17T03:15:44.991Z,100059.06
2022-08-17T03:18:11.545Z,100062.38
2022-08-17T03:20:51.934Z,100056.09
2022-08-17T03:23:18.435Z,100054.06
2022-08-17T03:25:53.418Z,100054.41
2022-08-17T03:28:20.214Z,100062.97
2022-08-17T03:30:47.644Z,100061.41
2022-08-17T03:33:15.079Z,100061.56
2022-08-17T03:35:42.497Z,100062.91
2022-08-17T03:38:09.049Z,100064.97
2022-08-17T03:40:58.835Z,100076.75
2022-08-17T03:43:22.942Z,100081.38
2022-08-17T03:45:49.436Z,100084.09
2022-08-17T03:48:19.495Z,100088.56
2022-08-17T03:50:46.915Z,100088.47
2022-08-17T03:53:13.489Z,100084.69
2022-08-17T03:55:40.032Z,100079.38
2022-08-17T03:58:07.531Z,100082.16
2022-08-17T04:00:34.977Z,100087.59
2022-08-17T04:03:06.141Z,100092.69
2022-08-17T04:05:36.426Z,100091.19
2022-08-17T04:08:02.907Z,100096.06
2022-08-17T04:10:33.972Z,100094.00
2022-08-17T04:13:11.324Z,100093.09
2022-08-17T04:15:37.819Z,100093.72
2022-08-17T04:18:07.289Z,100088.00
2022-08-17T04:20:34.913Z,100088.31
2022-08-17T04:23:02.315Z,100090.53
2022-08-17T04:25:29.754Z,100096.75
2022-08-17T04:27:56.220Z,100089.38
2022-08-17T04:30:23.677Z,100083.72
2022-08-17T04:33:02.263Z,100087.19
2022-08-17T04:35:34.045Z,100091.97
2022-08-17T04:38:01.470Z,100092.88
2022-08-17T04:40:27.958Z,100090.13
2022-08-17T04:43:00.924Z,100085.66
2022-08-17T04:45:32.197Z,100089.31
2022-08-17T04:47:59.135Z,100093.78
2022-08-17T04:50:25.627Z,100086.16
2022-08-17T04:52:53.074Z,100089.69
2022-08-17T04:55:20.480Z,100092.81
2022-08-17T04:57:46.968Z,100089.16
2022-08-17T05:00:13.468Z,100086.88
2022-08-17T05:02:39.964Z,100087.41
2022-08-17T05:05:17.873Z,100090.63
2022-08-17T05:07:45.301Z,100085.47
2022-08-17T05:10:12.728Z,100093.94
2022-08-17T05:12:40.167Z,100087.91
2022-08-17T05:15:06.663Z,100098.25
2022-08-17T05:17:33.156Z,100093.97
2022-08-17T05:19:59.651Z,100101.56
2022-08-17T05:22:26.124Z,100103.09
2022-08-17T05:24:53.631Z,100098.59
2022-08-17T05:27:20.544Z,100104.53
2022-08-17T05:29:47.964Z,100107.34
2022-08-17T05:32:38.146Z,100107.31
2022-08-17T05:35:03.282Z,100109.59
2022-08-17T05:37:30.989Z,100105.25
2022-08-17T05:39:58.040Z,100110.41
2022-08-17T05:42:25.573Z,100118.06
2022-08-17T05:44:52.064Z,100112.13
2022-08-17T05:47:18.553Z,100118.88
2022-08-17T05:49:45.063Z,100113.69
2022-08-17T05:52:19.872Z,100111.53
2022-08-17T05:54:46.680Z,100119.81
2022-08-17T05:57:14.092Z,100119.19
2022-08-17T05:59:40.597Z,100126.84
2022-08-17T06:02:07.997Z,100111.53
2022-08-17T06:04:35.445Z,100116.03
2022-08-17T06:07:02.883Z,100122.41
2022-08-17T06:09:33.629Z,100113.22
2022-08-17T06:12:01.455Z,100114.78
2022-08-17T06:14:29.913Z,100114.69
2022-08-17T06:16:57.312Z,100110.66
2022-08-17T06:19:24.702Z,100122.19
2022-08-17T06:21:52.117Z,100121.75
2022-08-17T06:24:19.568Z,100121.66
2022-08-17T06:26:46.991Z,100128.03
2022-08-17T06:29:18.662Z,100133.97
2022-08-17T06:31:45.547Z,100137.91
2022-08-17T06:34:12.970Z,100140.72
2022-08-17T06:36:40.372Z,100135.47
2022-08-17T06:39:07.785Z,100135.03
2022-08-17T06:41:37.871Z,100131.34
2022-08-17T06:44:05.502Z,100133.63
2022-08-17T06:46:32.916Z,100134.75
2022-08-17T06:48:59.415Z,100144.28
2022-08-17T06:51:25.918Z,100131.06
2022-08-17T06:53:52.416Z,100124.22
2022-08-17T06:56:18.948Z,100130.19
2022-08-17T06:58:45.441Z,100124.91
2022-08-17T07:01:12.993Z,100130.09
2022-08-17T07:03:40.540Z,100122.44
2022-08-17T07:06:07.052Z,100127.94
2022-08-17T07:08:35.335Z,100131.09
2022-08-17T07:11:02.930Z,100128.63
2022-08-17T07:13:30.335Z,100132.72
2022-08-17T07:15:57.732Z,100142.56
2022-08-17T07:18:25.192Z,100146.28
2022-08-17T07:20:52.632Z,100152.25
2022-08-17T07:23:20.050Z,100145.38
2022-08-17T07:25:48.207Z,100141.69
2022-08-17T07:28:15.627Z,100146.06
2022-08-17T07:30:43.049Z,100140.81
2022-08-17T07:33:14.560Z,100144.28
2022-08-17T07:35:44.125Z,100144.16
2022-08-17T07:38:25.682Z,100150.91
2022-08-17T07:40:54.060Z,100151.03
2022-08-17T07:43:23.322Z,100150.91
2022-08-17T07:45:50.272Z,100140.94
2022-08-17T07:48:17.667Z,100143.53
2022-08-17T07:50:49.566Z,100137.81
2022-08-17T07:53:18.160Z,100131.97
2022-08-17T07:55:44.673Z,100131.97
2022-08-17T07:58:11.152Z,100131.97
2022-08-17T08:00:37.651Z,100133.41
2022-08-17T08:03:04.734Z,100140.59
2022-08-17T08:05:49.953Z,100135.78
2022-08-17T08:08:18.940Z,100134.09
2022-08-17T08:10:46.475Z,100140.25
2022-08-17T08:13:14.460Z,100141.38
2022-08-17T08:15:41.043Z,100136.53
2022-08-17T08:18:11.826Z,100130.81
2022-08-17T08:20:53.508Z,100132.03
2022-08-17T08:23:20.429Z,100145.28
2022-08-17T08:25:50.899Z,100141.72
2022-08-17T08:28:21.001Z,100143.94
2022-08-17T08:30:47.605Z,100143.81
2022-08-17T08:33:14.078Z,100151.13
2022-08-17T08:35:40.568Z,100151.91
2022-08-17T08:38:07.023Z,100147.31
2022-08-17T08:40:33.503Z,100146.88
2022-08-17T08:43:00.900Z,100151.81
2022-08-17T08:45:28.310Z,100143.06
2022-08-17T08:47:55.714Z,100142.31
2022-08-17T08:50:37.377Z,100141.50
2022-08-17T08:53:04.788Z,100151.16
2022-08-17T08:55:33.469Z,100152.38
2022-08-17T08:57:59.932Z,100146.00
2022-08-17T09:00:27.372Z,100136.78
2022-08-17T09:02:54.769Z,100139.25
2022-08-17T09:05:22.158Z,100150.81
2022-08-17T09:07:48.741Z,100139.25
2022-08-17T09:10:15.266Z,100150.47
2022-08-17T09:12:42.717Z,100148.94
2022-08-17T09:15:12.983Z,100150.47
2022-08-17T09:17:39.676Z,100141.28
2022-08-17T09:20:07.059Z,100150.47
2022-08-17T09:22:34.381Z,100142.06
2022-08-17T09:25:00.817Z,100158.13
2022-08-17T09:27:28.130Z,100152.94
2022-08-17T09:29:54.643Z,100151.72
2022-08-17T09:32:21.002Z,100155.31
2022-08-17T09:34:48.511Z,100156.09
2022-08-17T09:37:15.073Z,100155.31
2022-08-17T09:39:41.747Z,100152.94
2022-08-17T09:42:08.294Z,100154.53
2022-08-17T09:44:35.524Z,100151.72
2022-08-17T09:47:04.718Z,100157.22
2022-08-17T09:49:31.147Z,100152.06
2022-08-17T09:51:57.662Z,100156.41
2022-08-17T09:54:38.639Z,100149.25
2022-08-17T09:57:27.882Z,100153.59
2022-08-17T09:59:51.899Z,100155.19
2022-08-17T10:02:18.414Z,100153.97
2022-08-17T10:04:46.721Z,100157.56
2022-08-17T10:07:13.143Z,100157.22
2022-08-17T10:09:39.502Z,100153.28
2022-08-17T10:12:06.012Z,100158.13
2022-08-17T10:14:37.372Z,100158.13
2022-08-17T10:17:12.580Z,100157.34
2022-08-17T10:19:39.022Z,100162.13
2022-08-17T10:22:14.672Z,100161.38
2022-08-17T10:25:02.021Z,100163.41
2022-08-17T10:27:38.191Z,100158.56
2022-08-17T10:30:05.436Z,100160.16
2022-08-17T10:32:31.832Z,100164.16
2022-08-17T10:34:58.255Z,100157.34
2022-08-17T10:37:24.691Z,100150.91
2022-08-17T10:39:52.970Z,100156.09
2022-08-17T10:42:33.064Z,100154.88
2022-08-17T10:45:00.605Z,100146.00
2022-08-17T10:47:27.879Z,100155.53
2022-08-17T10:49:54.529Z,100151.16
2022-08-17T10:52:25.089Z,100147.09
2022-08-17T10:54:51.621Z,100141.69
2022-08-17T10:57:23.948Z,100142.25
2022-08-17T10:59:50.302Z,100148.19
2022-08-17T11:02:16.683Z,100149.06
2022-08-17T11:04:43.052Z,100148.63
2022-08-17T11:07:09.544Z,100149.63
2022-08-17T11:09:36.752Z,100150.78
2022-08-17T11:12:03.158Z,100146.94
2022-08-17T11:14:29.557Z,100146.16
2022-08-17T11:16:56.819Z,100147.38
2022-08-17T11:19:24.132Z,100151.66
2022-08-17T11:21:50.494Z,100151.06
2022-08-17T11:24:17.714Z,100156.09
2022-08-17T11:26:44.095Z,100163.16
2022-08-17T11:29:10.486Z,100157.09
2022-08-17T11:31:39.725Z,100151.59
2022-08-17T11:34:06.394Z,100145.72
2022-08-17T11:36:32.782Z,100152.13
2022-08-17T11:38:59.153Z,100148.09
2022-08-17T11:41:25.588Z,100142.22
2022-08-17T11:43:52.010Z,100146.72
2022-08-17T11:46:18.370Z,100152.81
2022-08-17T11:48:44.745Z,100140.97
2022-08-17T11:51:11.116Z,100146.47
2022-08-17T11:53:37.506Z,100141.31
2022-08-17T11:56:03.877Z,100142.41
2022-08-17T11:58:30.337Z,100142.94
2022-08-17T12:00:56.724Z,100139.00
2022-08-17T12:03:23.157Z,100148.81
2022-08-17T12:05:49.559Z,100139.69
2022-08-17T12:08:15.932Z,100134.84
2022-08-17T12:10:42.313Z,100130.13
2022-08-17T12:13:09.565Z,100139.75
2022-08-17T12:15:35.943Z,100136.16
2022-08-17T12:18:02.341Z,100139.69
2022-08-17T12:20:28.701Z,100138.09
2022-08-17T12:22:55.096Z,100142.50
2022-08-17T12:25:21.456Z,100143.13
2022-08-17T12:28:05.484Z,100141.91
2022-08-17T12:30:33.682Z,100141.69
2022-08-17T12:33:00.059Z,100142.41
2022-08-17T12:35:26.436Z,100145.78
2022-08-17T12:37:52.861Z,100143.44
2022-08-17T12:40:19.223Z,100145.91
2022-08-17T12:42:45.580Z,100145.56
2022-08-17T12:45:12.821Z,100149.28
2022-08-17T12:47:39.205Z,100143.69
2022-08-17T12:50:05.640Z,100147.72
2022-08-17T12:52:32.043Z,100142.56
2022-08-17T12:54:58.416Z,100150.19
2022-08-17T12:57:24.784Z,100145.81
2022-08-17T12:59:51.135Z,100152.22
2022-08-17T13:02:17.551Z,100154.69
2022-08-17T13:04:44.756Z,100150.31
2022-08-17T13:07:11.133Z,100149.53
2022-08-17T13:09:40.681Z,100148.75
2022-08-17T13:12:07.737Z,100149.19
2022-08-17T13:14:34.302Z,100148.41
2022-08-17T13:17:00.687Z,100144.84
2022-08-17T13:19:40.185Z,100143.56
2022-08-17T13:22:07.674Z,100140.78
2022-08-17T13:24:38.286Z,100128.00
2022-08-17T13:27:08.000Z,100129.66
2022-08-17T13:29:34.853Z,100124.16
2022-08-17T13:32:04.740Z,100120.78
2022-08-17T13:34:31.517Z,100123.25
2022-08-17T13:36:59.724Z,100125.28
2022-08-17T13:39:26.305Z,100123.69
2022-08-17T13:41:53.832Z,100133.00
2022-08-17T13:44:23.934Z,100129.09
2022-08-17T13:46:50.320Z,100128.31
2022-08-17T13:49:22.303Z,100131.13
2022-08-17T13:51:49.531Z,100136.75
2022-08-17T13:54:15.894Z,100131.13
2022-08-17T13:56:42.271Z,100131.59
2022-08-17T13:59:09.559Z,100131.59
2022-08-17T14:01:36.006Z,100136.41
2022-08-17T14:04:02.424Z,100139.69
2022-08-17T14:06:52.448Z,100141.22
2022-08-17T14:09:16.020Z,100134.06
2022-08-17T14:11:42.414Z,100142.50
2022-08-17T14:14:09.629Z,100135.28
2022-08-17T14:16:39.371Z,100138.09
2022-08-17T14:19:05.807Z,100132.47
2022-08-17T14:21:32.183Z,100129.34
2022-08-17T14:23:58.585Z,100136.88
2022-08-17T14:26:24.992Z,100133.94
2022-08-17T14:28:56.197Z,100137.53
2022-08-17T14:31:23.360Z,100135.94
2022-08-17T14:33:49.773Z,100133.94
2022-08-17T14:36:16.161Z,100135.94
2022-08-17T14:38:42.522Z,100125.97
2022-08-17T14:41:09.795Z,100127.97
2022-08-17T14:43:36.167Z,100137.19
2022-08-17T14:46:02.532Z,100132.81
2022-08-17T14:48:28.928Z,100134.84
2022-08-17T14:50:56.173Z,100131.25
2022-08-17T14:53:23.424Z,100135.63
2022-08-17T14:55:49.829Z,100127.19
2022-08-17T14:58:16.207Z,100130.78
2022-08-17T15:00:43.479Z,100129.22
2022-08-17T15:03:10.015Z,100125.66
2022-08-17T15:05:36.443Z,100123.63
2022-08-17T15:08:02.833Z,100122.84
2022-08-17T15:10:31.114Z,100127.66
2022-08-17T15:12:57.489Z,100123.63
2022-08-17T15:15:25.764Z,100131.25
2022-08-17T15:17:52.999Z,100124.06
2022-08-17T15:20:19.510Z,100126.88
2022-08-17T15:22:45.935Z,100124.06
2022-08-17T15:25:12.381Z,100132.47
2022-08-17T15:27:38.808Z,100133.25
2022-08-17T15:30:07.291Z,100128.44
2022-08-17T15:32:33.890Z,100135.28
2022-08-17T15:35:00.394Z,100127.66
2022-08-17T15:37:29.608Z,100134.50
2022-08-17T15:39:58.034Z,100127.66
2022-08-17T15:42:24.623Z,100121.25
2022-08-17T15:44:54.608Z,100123.28
2022-08-17T15:47:21.082Z,100123.28
2022-08-17T15:49:47.566Z,100125.28
2022-08-17T15:52:14.073Z,100124.50
2022-08-17T15:54:41.319Z,100126.09
2022-08-17T15:57:11.820Z,100125.28
2022-08-17T15:59:39.056Z,100125.28
2022-08-17T16:03:14.515Z,100123.72
2022-08-17T16:04:51.989Z,100124.50
2022-08-17T16:07:23.037Z,100127.75
2022-08-17T16:09:52.478Z,100136.97
2022-08-17T16:12:19.022Z,100136.97
2022-08-17T16:14:45.531Z,100141.81
2022-08-17T16:17:39.165Z,100144.59
2022-08-17T16:19:59.202Z,100151.00
2022-08-17T16:22:27.518Z,100144.59
2022-08-17T16:24:57.135Z,100143.81
2022-08-17T16:27:24.184Z,100149.44
2022-08-17T16:29:51.788Z,100148.66
2022-08-17T16:32:22.820Z,100143.06
2022-08-17T16:34:58.521Z,100147.84
2022-08-17T16:37:25.033Z,100151.47
2022-08-17T16:39:51.899Z,100139.44
2022-08-17T16:42:19.258Z,100147.09
2022-08-17T16:44:47.565Z,100149.88
2022-08-17T16:47:14.073Z,100156.28
2022-08-17T16:49:40.530Z,100161.13
2022-08-17T16:52:06.971Z,100166.72
2022-08-17T16:54:33.489Z,100166.72
2022-08-17T16:57:00.764Z,100163.16
2022-08-17T16:59:31.109Z,100169.53
2022-08-17T17:02:06.829Z,100172.34
2022-08-17T17:04:35.068Z,100174.38
2022-08-17T17:07:01.812Z,100179.97
2022-08-17T17:09:28.250Z,100186.38
2022-08-17T17:11:54.678Z,100188.41
2022-08-17T17:14:21.957Z,100189.19
2022-08-17T17:16:49.243Z,100181.97
2022-08-17T17:19:16.504Z,100184.78
2022-08-17T17:21:52.836Z,100191.22
2022-08-17T17:24:20.209Z,100177.97
2022-08-17T17:26:46.640Z,100178.41
2022-08-17T17:29:13.893Z,100179.19
2022-08-17T17:31:41.204Z,100192.44
2022-08-17T17:34:07.629Z,100183.25
2022-08-17T17:36:34.084Z,100194.78
2022-08-17T17:39:00.508Z,100200.06
2022-08-17T17:41:27.001Z,100203.66
2022-08-17T17:43:53.424Z,100207.25
2022-08-17T17:46:26.625Z,100213.66
2022-08-17T17:48:55.411Z,100212.06
2022-08-17T17:52:08.587Z,100216.91
2022-08-17T17:54:08.435Z,100222.53
2022-08-17T17:56:44.635Z,100219.72
2022-08-17T17:59:13.235Z,100225.34
2022-08-17T18:01:40.796Z,100230.94
2022-08-17T18:04:15.681Z,100233.75
2022-08-17T18:06:47.939Z,100229.69
2022-08-17T18:09:15.481Z,100228.59
2022-08-17T18:11:45.990Z,100233.41
2022-08-17T18:14:19.639Z,100234.63
2022-08-17T18:16:46.176Z,100248.22
2022-08-17T18:19:13.627Z,100251.81
2022-08-17T18:21:41.001Z,100247.00
2022-08-17T18:24:07.521Z,100251.13
2022-08-17T18:26:33.995Z,100247.31
2022-08-17T18:29:00.583Z,100248.09
2022-08-17T18:31:27.084Z,100240.38
2022-08-17T18:33:53.593Z,100234.53
2022-08-17T18:36:20.071Z,100242.19
2022-08-17T18:38:46.570Z,100251.84
2022-08-17T18:41:13.061Z,100242.84
2022-08-17T18:43:52.738Z,100252.38
2022-08-17T18:46:28.743Z,100245.00
2022-08-17T18:48:58.923Z,100253.19
2022-08-17T18:51:40.467Z,100245.41
2022-08-17T18:54:09.103Z,100256.06
2022-08-17T18:56:35.643Z,100260.47
2022-08-17T18:59:02.144Z,100255.97
2022-08-17T19:01:46.896Z,100259.91
2022-08-17T19:04:15.130Z,100262.22
2022-08-17T19:06:41.651Z,100266.09
2022-08-17T19:09:08.171Z,100268.34
2022-08-17T19:11:35.608Z,100266.19
2022-08-17T19:14:03.033Z,100266.41
2022-08-17T19:16:30.476Z,100271.00
2022-08-17T19:18:56.949Z,100274.59
2022-08-17T19:21:23.464Z,100271.44
2022-08-17T19:23:53.801Z,100282.69
2022-08-17T19:26:54.601Z,100281.22
2022-08-17T19:29:08.405Z,100284.16
2022-08-17T19:31:36.231Z,100278.88
2022-08-17T19:34:02.742Z,100286.16
2022-08-17T19:36:30.494Z,100280.66
2022-08-17T19:38:56.994Z,100283.47
2022-08-17T19:41:24.427Z,100287.16
2022-08-17T19:43:50.924Z,100289.84
2022-08-17T19:46:18.364Z,100289.19
2022-08-17T19:48:45.916Z,100284.81
2022-08-17T19:51:13.324Z,100283.56
2022-08-17T19:54:03.910Z,100299.50
2022-08-17T19:56:27.292Z,100294.91
2022-08-17T19:58:54.746Z,100298.91
2022-08-17T20:01:22.182Z,100294.22
2022-08-17T20:03:49.704Z,100290.97
2022-08-17T20:06:16.241Z,100289.50
2022-08-17T20:08:43.686Z,100298.38
2022-08-17T20:11:10.180Z,100295.13
2022-08-17T20:13:37.610Z,100289.59
2022-08-17T20:16:05.078Z,100296.44
2022-08-17T20:18:32.513Z,100302.94
2022-08-17T20:20:59.014Z,100296.53
2022-08-17T20:23:27.417Z,100295.78
2022-08-17T20:25:53.912Z,100299.00
2022-08-17T20:28:21.384Z,100303.03
2022-08-17T20:30:47.890Z,100303.41
2022-08-17T20:33:14.429Z,100309.00
2022-08-17T20:35:41.875Z,100307.78
2022-08-17T20:38:08.398Z,100312.16
2022-08-17T20:40:35.827Z,100316.06
2022-08-17T20:43:03.390Z,100308.53
2022-08-17T20:45:30.826Z,100307.19
2022-08-17T20:50:45.940Z,100308.69
2022-08-17T20:53:13.354Z,100310.16
2022-08-17T20:55:51.574Z,100317.78
2022-08-17T20:58:20.106Z,100326.63
2022-08-17T21:00:46.649Z,100329.34
2022-08-17T21:03:14.079Z,100337.47
2022-08-17T21:05:40.654Z,100336.56
2022-08-17T21:08:07.149Z,100341.09
2022-08-17T21:10:34.578Z,100334.63
2022-08-17T21:13:01.074Z,100343.84
2022-08-17T21:18:11.555Z,100335.34
2022-08-17T21:20:38.048Z,100339.19
2022-08-17T21:23:04.612Z,100340.66
2022-08-17T21:25:31.101Z,100342.69
2022-08-17T21:27:58.534Z,100344.28
2022-08-17T21:33:20.732Z,100352.50
2022-08-17T21:35:48.182Z,100349.72
2022-08-17T21:38:14.684Z,100348.25
2022-08-17T21:40:41.198Z,100345.88
2022-08-17T21:43:07.689Z,100353.66
2022-08-17T21:48:29.114Z,100350.25
2022-08-17T21:50:55.631Z,100342.41
2022-08-17T21:53:23.287Z,100332.25
2022-08-17T21:55:50.728Z,100334.78
2022-08-17T21:58:17.265Z,100334.00
2022-08-17T22:03:37.789Z,100343.38
2022-08-17T22:06:05.989Z,100326.13
2022-08-17T22:08:33.406Z,100328.59
2022-08-17T22:10:59.940Z,100329.19
2022-08-17T22:13:29.811Z,100331.84
2022-08-17T22:18:42.717Z,100326.19
2022-08-17T22:21:10.183Z,100329.75
2022-08-17T22:23:37.634Z,100332.31
2022-08-17T22:26:04.129Z,100325.56
2022-08-17T22:28:31.525Z,100325.56
2022-08-17T22:33:44.932Z,100310.34
2022-08-17T22:36:11.440Z,100311.97
2022-08-17T22:38:38.867Z,100309.28
2022-08-17T22:41:07.122Z,100304.91
2022-08-17T22:43:34.613Z,100302.97
2022-08-17T22:46:02.461Z,100308.06
2022-08-17T22:48:29.896Z,100298.84
2022-08-17T22:50:57.321Z,100299.91
2022-08-17T22:53:24.764Z,100300.63
2022-08-17T22:55:52.171Z,100300.78
2022-08-17T22:58:19.620Z,100304.53
2022-08-17T23:00:47.064Z,100294.38
2022-08-17T23:03:13.643Z,100298.34
2022-08-17T23:05:40.223Z,100298.06
2022-08-17T23:08:07.642Z,100299.38
2022-08-17T23:10:34.171Z,100294.03
2022-08-17T23:13:01.581Z,100291.94
2022-08-17T23:15:29.456Z,100292.53
2022-08-17T23:17:56.911Z,100282.22
2022-08-17T23:20:24.315Z,100276.63
2022-08-17T23:22:53.087Z,100278.47
2022-08-17T23:25:19.685Z,100280.22
2022-08-17T23:27:50.994Z,100277.75
2022-08-17T23:30:17.569Z,100280.47
2022-08-17T23:32:53.557Z,100279.78
2022-08-17T23:35:20.549Z,100277.59
2022-08-17T23:38:07.004Z,100277.03
2022-08-17T23:40:33.501Z,100273.47
2022-08-17T23:43:00.931Z,100269.88
2022-08-17T23:45:32.469Z,100265.16
2022-08-17T23:47:59.980Z,100268.66
2022-08-17T23:50:30.022Z,100271.50
2022-08-17T23:52:58.546Z,100275.16
2022-08-17T23:55:25.059Z,100270.16
2022-08-17T23:57:51.684Z,100253.44
